createdAt,value
2023-04-20T00:02:13.305Z,91.3
2023-04-20T00:05:13.552Z,91.2
2023-04-20T00:08:13.299Z,91.1
2023-04-20T00:11:13.303Z,91.1
2023-04-20T00:14:13.305Z,91
2023-04-20T00:17:13.306Z,91.1
2023-04-20T00:20:13.320Z,91.1
2023-04-20T00:23:13.325Z,91.1
2023-04-20T00:26:13.324Z,91.1
2023-04-20T00:29:13.322Z,91.4
2023-04-20T00:32:13.320Z,91.2
2023-04-20T00:35:13.329Z,91.1
2023-04-20T00:38:13.335Z,91.1
2023-04-20T00:41:13.338Z,91.1
2023-04-20T00:44:13.336Z,91.1
2023-04-20T00:47:13.343Z,91.2
2023-04-20T00:50:13.369Z,91
2023-04-20T00:53:13.360Z,91
2023-04-20T00:56:13.385Z,91.1
2023-04-20T00:59:13.355Z,91.3
2023-04-20T01:02:13.385Z,91.3
2023-04-20T01:05:13.367Z,91.5
2023-04-20T01:08:13.375Z,91.4
2023-04-20T01:11:13.387Z,91.5
2023-04-20T01:14:13.380Z,91.5
2023-04-20T01:17:13.381Z,91.5
2023-04-20T01:20:13.399Z,91.6
2023-04-20T01:23:13.401Z,91.6
2023-04-20T01:26:13.410Z,91.5
2023-04-20T01:29:13.415Z,91.6
2023-04-20T01:32:13.407Z,91.5
2023-04-20T01:35:13.412Z,91.5
2023-04-20T01:38:13.435Z,91.7
2023-04-20T01:41:13.429Z,91.6
2023-04-20T01:44:13.416Z,91.5
2023-04-20T01:47:13.423Z,91.6
2023-04-20T01:50:13.438Z,91.6
2023-04-20T01:53:13.457Z,91.7
2023-04-20T01:56:13.458Z,91.7
2023-04-20T01:59:13.462Z,91.5
2023-04-20T02:02:13.504Z,91.6
2023-04-20T02:05:13.465Z,91.8
2023-04-20T02:08:13.476Z,91.7
2023-04-20T02:11:13.478Z,91.7
2023-04-20T02:14:13.482Z,91.8
2023-04-20T02:17:13.532Z,91.8
2023-04-20T02:20:13.477Z,91.7
2023-04-20T02:23:13.497Z,91.7
2023-04-20T02:26:13.493Z,91.8
2023-04-20T02:29:13.497Z,91.8
2023-04-20T02:32:13.488Z,91.8
2023-04-20T02:35:13.507Z,91.7
2023-04-20T02:38:13.518Z,91.7
2023-04-20T02:41:13.521Z,91.6
2023-04-20T02:44:13.517Z,91.5
2023-04-20T02:47:13.509Z,91.5
2023-04-20T02:50:13.522Z,91.5
2023-04-20T02:53:13.546Z,91.4
2023-04-20T02:56:13.550Z,91.4
2023-04-20T02:59:13.544Z,91.4
2023-04-20T03:02:13.631Z,91.4
2023-04-20T03:05:13.565Z,91.4
2023-04-20T03:08:13.570Z,91.4
2023-04-20T03:11:13.590Z,91.4
2023-04-20T03:14:13.566Z,91.3
2023-04-20T03:17:13.570Z,91.3
2023-04-20T03:20:13.575Z,91.4
2023-04-20T03:23:13.586Z,91.4
2023-04-20T03:26:13.594Z,91.4
2023-04-20T03:29:13.592Z,91.4
2023-04-20T03:32:13.657Z,91.4
2023-04-20T03:35:13.603Z,91.4
2023-04-20T03:38:13.629Z,91.4
2023-04-20T03:41:13.620Z,91.5
2023-04-20T03:44:13.605Z,91.4
2023-04-20T03:47:13.611Z,91.4
2023-04-20T03:50:13.621Z,91.4
2023-04-20T03:53:13.625Z,91.4
2023-04-20T03:56:13.793Z,91.4
2023-04-20T03:59:13.629Z,91.5
2023-04-20T04:02:13.728Z,91.5
2023-04-20T04:05:13.669Z,91.5
2023-04-20T04:08:13.700Z,91.5
2023-04-20T04:11:13.648Z,91.4
2023-04-20T04:14:13.648Z,91.3
2023-04-20T04:17:13.669Z,91.2
2023-04-20T04:20:13.656Z,91.3
2023-04-20T04:23:13.661Z,91.3
2023-04-20T04:26:13.664Z,91.3
2023-04-20T04:29:13.663Z,91.3
2023-04-20T04:32:13.678Z,91.2
2023-04-20T04:35:13.673Z,91.2
2023-04-20T04:38:13.685Z,91.3
2023-04-20T04:41:13.687Z,91.3
2023-04-20T04:44:13.682Z,91.3
2023-04-20T04:47:13.684Z,91.2
2023-04-20T04:50:13.708Z,91.2
2023-04-20T04:53:13.711Z,91.2
2023-04-20T04:56:13.729Z,91.3
2023-04-20T04:59:13.717Z,91.3
2023-04-20T05:02:13.724Z,91.2
2023-04-20T05:05:13.717Z,91.1
2023-04-20T05:08:13.729Z,91.1
2023-04-20T05:11:13.734Z,91
2023-04-20T05:14:13.730Z,91
2023-04-20T05:17:13.734Z,91
2023-04-20T05:20:13.731Z,90.8
2023-04-20T05:23:13.754Z,90.8
2023-04-20T05:26:13.758Z,90.7
2023-04-20T05:29:13.749Z,90.7
2023-04-20T05:32:13.751Z,90.6
2023-04-20T05:35:13.755Z,90.5
2023-04-20T05:38:13.768Z,90.5
2023-04-20T05:41:13.782Z,90.5
2023-04-20T05:44:13.766Z,90.4
2023-04-20T05:47:13.769Z,90.3
2023-04-20T05:50:13.783Z,90.1
2023-04-20T05:53:13.797Z,89.8
2023-04-20T05:56:13.803Z,89.8
2023-04-20T05:59:13.783Z,89.8
2023-04-20T06:02:13.842Z,89.5
2023-04-20T06:05:13.824Z,89.3
2023-04-20T06:08:13.810Z,89
2023-04-20T06:11:13.843Z,88.5
2023-04-20T06:14:13.811Z,88
2023-04-20T06:17:13.800Z,87.1
2023-04-20T06:20:13.825Z,87
2023-04-20T06:23:13.848Z,86.9
2023-04-20T06:26:13.833Z,87
2023-04-20T06:29:13.816Z,86.8
2023-04-20T06:32:13.820Z,86.7
2023-04-20T06:35:13.817Z,86.4
2023-04-20T06:38:13.841Z,86.4
2023-04-20T06:41:13.839Z,86.3
2023-04-20T06:44:13.844Z,85.4
2023-04-20T06:47:13.836Z,85.2
2023-04-20T06:50:13.837Z,84.7
2023-04-20T06:53:13.853Z,84
2023-04-20T06:56:13.861Z,83.4
2023-04-20T06:59:13.840Z,83
2023-04-20T07:02:14.017Z,82.9
2023-04-20T07:05:13.857Z,82.7
2023-04-20T07:08:13.866Z,80.9
2023-04-20T07:11:13.869Z,80
2023-04-20T07:14:13.876Z,79.6
2023-04-20T07:17:13.861Z,79.3
2023-04-20T07:20:13.883Z,78.5
2023-04-20T07:23:13.893Z,78.1
2023-04-20T07:26:13.906Z,77.7
2023-04-20T07:29:13.907Z,77.4
2023-04-20T07:32:13.951Z,76.4
2023-04-20T07:35:13.938Z,76.1
2023-04-20T07:38:13.948Z,74.7
2023-04-20T07:41:13.948Z,75.1
2023-04-20T07:44:13.947Z,75
2023-04-20T07:47:13.966Z,74.3
2023-04-20T07:50:13.961Z,73.3
2023-04-20T07:53:13.970Z,73.2
2023-04-20T07:56:13.985Z,71.7
2023-04-20T07:59:13.981Z,70.2
2023-04-20T08:02:14.032Z,69.9
2023-04-20T08:05:14.136Z,70.1
2023-04-20T08:08:14.007Z,70.7
2023-04-20T08:11:14.010Z,70.2
2023-04-20T08:14:14.008Z,70.5
2023-04-20T08:17:14.018Z,70.2
2023-04-20T08:20:14.016Z,69.6
2023-04-20T08:23:14.046Z,69.7
2023-04-20T08:26:14.029Z,68.9
2023-04-20T08:29:14.037Z,67.2
2023-04-20T08:32:14.055Z,67.1
2023-04-20T08:35:14.032Z,66.4
2023-04-20T08:38:18.003Z,67.2
2023-04-20T08:41:14.058Z,68.1
2023-04-20T08:44:14.079Z,68
2023-04-20T08:47:14.053Z,66.4
2023-04-20T08:50:14.071Z,64.1
2023-04-20T08:53:14.079Z,62.3
2023-04-20T08:56:14.084Z,60.8
2023-04-20T08:59:14.104Z,60.1
2023-04-20T09:02:14.125Z,57.6
2023-04-20T09:05:14.143Z,56.7
2023-04-20T09:08:14.099Z,56.3
2023-04-20T09:11:14.114Z,54.6
2023-04-20T09:14:14.098Z,54.2
2023-04-20T09:17:14.152Z,53.9
2023-04-20T09:20:14.104Z,54.4
2023-04-20T09:23:14.119Z,56.8
2023-04-20T09:26:14.127Z,59.2
2023-04-20T09:29:14.114Z,60.4
2023-04-20T09:32:14.156Z,60.5
2023-04-20T09:35:14.136Z,60.8
2023-04-20T09:38:14.145Z,61.7
2023-04-20T09:41:14.141Z,60.4
2023-04-20T09:44:14.212Z,58.3
2023-04-20T09:47:14.154Z,58.7
2023-04-20T09:50:25.072Z,59.4
2023-04-20T09:53:14.154Z,59.1
2023-04-20T09:56:14.167Z,58.4
2023-04-20T09:59:14.177Z,58.9
2023-04-20T10:02:14.370Z,57
2023-04-20T10:05:14.227Z,56.7
2023-04-20T10:08:14.195Z,55
2023-04-20T10:11:14.198Z,52.9
2023-04-20T10:14:14.190Z,54.3
2023-04-20T10:17:14.262Z,55.3
2023-04-20T10:20:14.192Z,55.5
2023-04-20T10:23:14.206Z,55.8
2023-04-20T10:26:14.252Z,56.6
2023-04-20T10:29:14.203Z,56.8
2023-04-20T10:32:14.205Z,54.4
2023-04-20T10:35:14.202Z,51.5
2023-04-20T10:38:14.217Z,50.5
2023-04-20T10:41:14.226Z,50.9
2023-04-20T10:44:14.218Z,51.8
2023-04-20T10:47:14.227Z,51.6
2023-04-20T10:50:14.261Z,50
2023-04-20T10:53:14.227Z,51.2
2023-04-20T10:56:14.245Z,51.2
2023-04-20T10:59:14.259Z,52.6
2023-04-20T11:02:14.300Z,52.6
2023-04-20T11:05:14.293Z,52.1
2023-04-20T11:08:14.248Z,52
2023-04-20T11:11:14.263Z,51.8
2023-04-20T11:14:14.265Z,50.7
2023-04-20T11:17:14.308Z,48.9
2023-04-20T11:20:14.339Z,49.8
2023-04-20T11:23:14.286Z,49.1
2023-04-20T11:26:14.292Z,48.7
2023-04-20T11:29:14.289Z,49
2023-04-20T11:32:14.333Z,49.8
2023-04-20T11:35:14.289Z,51.2
2023-04-20T11:38:14.289Z,52.5
2023-04-20T11:41:14.311Z,53.2
2023-04-20T11:44:14.305Z,54.6
2023-04-20T11:47:14.310Z,55.4
2023-04-20T11:50:14.372Z,56.3
2023-04-20T11:53:14.330Z,56.4
2023-04-20T11:56:14.329Z,57.6
2023-04-20T11:59:14.329Z,57.7
2023-04-20T12:02:14.418Z,58.3
2023-04-20T12:05:14.404Z,57.4
2023-04-20T12:08:14.346Z,57
2023-04-20T12:11:14.362Z,56.8
2023-04-20T12:14:14.357Z,57.3
2023-04-20T12:17:14.361Z,57.6
2023-04-20T12:20:14.410Z,58.6
2023-04-20T12:23:14.370Z,59
2023-04-20T12:26:14.385Z,59.9
2023-04-20T12:29:14.381Z,60.6
2023-04-20T12:32:14.380Z,61.3
2023-04-20T12:35:14.385Z,64.6
2023-04-20T12:38:14.680Z,66.3
2023-04-20T12:41:14.426Z,65.9
2023-04-20T12:44:14.401Z,66.7
2023-04-20T12:47:14.405Z,67.5
2023-04-20T12:50:14.410Z,67.2
2023-04-20T12:53:14.409Z,68.5
2023-04-20T12:56:14.426Z,69.2
2023-04-20T12:59:14.428Z,70.1
2023-04-20T13:02:14.464Z,71.4
2023-04-20T13:05:14.439Z,71.8
2023-04-20T13:08:14.453Z,72.9
2023-04-20T13:11:14.463Z,72.5
2023-04-20T13:14:14.456Z,72.9
2023-04-20T13:17:14.451Z,72.8
2023-04-20T13:20:14.460Z,73.3
2023-04-20T13:23:15.403Z,73.6
2023-04-20T13:26:14.472Z,73.9
2023-04-20T13:29:14.463Z,74.3
2023-04-20T13:32:14.533Z,74.7
2023-04-20T13:35:14.467Z,75.1
2023-04-20T13:38:14.493Z,75.5
2023-04-20T13:41:14.493Z,75.8
2023-04-20T13:44:14.492Z,76.6
2023-04-20T13:47:14.491Z,77
2023-04-20T13:50:14.502Z,77
2023-04-20T13:53:14.491Z,76.5
2023-04-20T13:56:14.507Z,76.7
2023-04-20T13:59:14.504Z,76.8
2023-04-20T14:02:14.539Z,77.2
2023-04-20T14:05:14.517Z,77.4
2023-04-20T14:08:14.520Z,77.3
2023-04-20T14:11:14.536Z,77.3
2023-04-20T14:14:14.529Z,77.9
2023-04-20T14:17:14.576Z,78.2
2023-04-20T14:20:14.549Z,78.7
2023-04-20T14:23:14.550Z,79.5
2023-04-20T14:26:14.568Z,80.1
2023-04-20T14:29:14.551Z,80.9
2023-04-20T14:32:14.561Z,81.2
2023-04-20T14:35:14.566Z,81.3
2023-04-20T14:38:14.573Z,81.3
2023-04-20T14:41:14.587Z,81.4
2023-04-20T14:44:14.572Z,81.4
2023-04-20T14:47:14.575Z,81.6
2023-04-20T14:50:14.598Z,81.4
2023-04-20T14:53:14.584Z,81.2
2023-04-20T14:56:14.597Z,81.1
2023-04-20T14:59:14.599Z,80.9
2023-04-20T15:02:14.618Z,80.7
2023-04-20T15:05:14.919Z,80.7
2023-04-20T15:08:14.607Z,80.5
2023-04-20T15:11:14.612Z,80.2
2023-04-20T15:14:14.692Z,78.9
2023-04-20T15:17:14.617Z,78.7
2023-04-20T15:20:14.629Z,78.5
2023-04-20T15:23:14.621Z,78.5
2023-04-20T15:26:14.651Z,78.5
2023-04-20T15:29:14.650Z,78.4
2023-04-20T15:32:14.662Z,78.6
2023-04-20T15:35:14.658Z,78.3
2023-04-20T15:38:14.686Z,78.2
2023-04-20T15:41:14.682Z,78.5
2023-04-20T15:44:14.670Z,78.3
2023-04-20T15:47:14.694Z,78.4
2023-04-20T15:50:14.690Z,78.5
2023-04-20T15:53:14.700Z,78.2
2023-04-20T15:56:14.702Z,78.2
2023-04-20T15:59:14.699Z,77.9
2023-04-20T16:02:14.767Z,77.7
2023-04-20T16:05:14.756Z,77.5
2023-04-20T16:08:14.725Z,77.3
2023-04-20T16:11:14.726Z,77.5
2023-04-20T16:14:14.726Z,77.8
2023-04-20T16:17:14.724Z,78.2
2023-04-20T16:20:14.727Z,78.6
2023-04-20T16:23:14.739Z,78.7
2023-04-20T16:26:14.740Z,78.9
2023-04-20T16:29:14.742Z,78.9
2023-04-20T16:32:14.753Z,79.1
2023-04-20T16:35:14.752Z,79.3
2023-04-20T16:38:14.754Z,79.3
2023-04-20T16:41:14.793Z,79.4
2023-04-20T16:44:14.774Z,79.6
2023-04-20T16:47:14.773Z,79.9
2023-04-20T16:50:14.788Z,80.2
2023-04-20T16:53:14.781Z,80.5
2023-04-20T16:56:14.810Z,80.8
2023-04-20T16:59:14.804Z,81.2
2023-04-20T17:02:14.867Z,81.5
2023-04-20T17:05:14.818Z,81.7
2023-04-20T17:08:14.820Z,81.9
2023-04-20T17:11:14.881Z,82
2023-04-20T17:14:14.820Z,82.2
2023-04-20T17:17:14.818Z,82.3
2023-04-20T17:20:14.820Z,82.4
2023-04-20T17:23:14.830Z,82.4
2023-04-20T17:26:14.854Z,82.6
2023-04-20T17:29:14.838Z,82.9
2023-04-20T17:32:14.919Z,83.1
2023-04-20T17:35:14.897Z,83.3
2023-04-20T17:38:14.870Z,83.6
2023-04-20T17:41:14.872Z,83.8
2023-04-20T17:44:14.858Z,84.2
2023-04-20T17:47:14.952Z,84.5
2023-04-20T17:50:14.869Z,84.7
2023-04-20T17:53:14.877Z,85
2023-04-20T17:56:14.909Z,85.1
2023-04-20T17:59:14.889Z,85.1
2023-04-20T18:02:14.952Z,85.1
2023-04-20T18:05:14.890Z,85.5
2023-04-20T18:08:14.905Z,86.1
2023-04-20T18:11:14.922Z,86.4
2023-04-20T18:14:14.915Z,86.1
2023-04-20T18:17:14.909Z,86.1
2023-04-20T18:20:14.914Z,86.3
2023-04-20T18:23:14.937Z,86.6
2023-04-20T18:26:14.921Z,87.1
2023-04-20T18:29:14.943Z,87.8
2023-04-20T18:32:14.941Z,88.5
2023-04-20T18:35:14.945Z,88.6
2023-04-20T18:38:14.937Z,88.8
2023-04-20T18:41:14.971Z,89.2
2023-04-20T18:44:14.950Z,89.6
2023-04-20T18:47:14.949Z,89.9
2023-04-20T18:50:14.969Z,89.9
2023-04-20T18:53:14.961Z,90.1
2023-04-20T18:56:14.985Z,90
2023-04-20T18:59:14.967Z,90.2
2023-04-20T19:02:14.989Z,90.7
2023-04-20T19:05:14.990Z,91.1
2023-04-20T19:08:14.988Z,91.2
2023-04-20T19:11:15.005Z,91.3
2023-04-20T19:14:14.997Z,91.3
2023-04-20T19:17:14.995Z,91
2023-04-20T19:20:14.996Z,90.9
2023-04-20T19:23:15.016Z,90.9
2023-04-20T19:26:15.041Z,91.2
2023-04-20T19:29:15.018Z,91.6
2023-04-20T19:32:15.061Z,91.9
2023-04-20T19:35:15.039Z,92
2023-04-20T19:38:15.043Z,92
2023-04-20T19:41:15.055Z,91.9
2023-04-20T19:44:15.038Z,91.8
2023-04-20T19:47:15.039Z,91.7
2023-04-20T19:50:15.051Z,91.8
2023-04-20T19:53:15.049Z,92.2
2023-04-20T19:56:15.058Z,92.4
2023-04-20T19:59:15.071Z,92.4
2023-04-20T20:02:15.075Z,92.3
2023-04-20T20:05:15.076Z,92.5
2023-04-20T20:08:15.080Z,92.6
2023-04-20T20:11:15.097Z,92.7
2023-04-20T20:14:15.096Z,92.9
2023-04-20T20:17:15.072Z,93.1
2023-04-20T20:20:15.090Z,93.2
2023-04-20T20:23:15.082Z,93.4
2023-04-20T20:26:15.096Z,93.7
2023-04-20T20:29:15.106Z,93.7
2023-04-20T20:32:15.114Z,93.8
2023-04-20T20:35:15.103Z,93.9
2023-04-20T20:38:15.099Z,94
2023-04-20T20:41:15.117Z,94.1
2023-04-20T20:44:15.127Z,94.2
2023-04-20T20:47:15.108Z,94.3
2023-04-20T20:50:15.116Z,94.5
2023-04-20T20:53:15.127Z,94.7
2023-04-20T20:56:15.137Z,94.8
2023-04-20T20:59:15.134Z,94.9
2023-04-20T21:02:15.160Z,95
2023-04-20T21:05:15.152Z,95.2
2023-04-20T21:08:15.152Z,95.3
2023-04-20T21:11:15.151Z,95.3
2023-04-20T21:14:15.166Z,95.5
2023-04-20T21:17:15.154Z,95.6
2023-04-20T21:20:15.169Z,95.6
2023-04-20T21:23:15.180Z,95.7
2023-04-20T21:26:15.170Z,95.8
2023-04-20T21:29:15.166Z,95.8
2023-04-20T21:32:15.190Z,95.8
2023-04-20T21:35:15.177Z,95.7
2023-04-20T21:38:15.190Z,95.5
2023-04-20T21:41:15.199Z,95.4
2023-04-20T21:44:15.187Z,95.3
2023-04-20T21:47:15.177Z,95.2
2023-04-20T21:50:15.190Z,95
2023-04-20T21:53:15.206Z,94.9
2023-04-20T21:56:15.202Z,94.8
2023-04-20T21:59:15.205Z,94.7
2023-04-20T22:02:15.268Z,94.6
2023-04-20T22:05:15.228Z,94.5
2023-04-20T22:08:15.264Z,94.5
2023-04-20T22:11:15.264Z,94.4
2023-04-20T22:14:15.270Z,94.3
2023-04-20T22:17:15.284Z,94.2
2023-04-20T22:20:15.299Z,94.2
2023-04-20T22:23:15.311Z,94.1
2023-04-20T22:26:15.322Z,94.1
2023-04-20T22:29:15.322Z,94.1
2023-04-20T22:32:15.339Z,94.1
2023-04-20T22:35:15.335Z,94
2023-04-20T22:38:15.338Z,94
2023-04-20T22:41:17.249Z,94
2023-04-20T22:44:15.354Z,93.9
2023-04-20T22:47:15.368Z,93.9
2023-04-20T22:50:15.355Z,93.8
2023-04-20T22:53:15.363Z,93.8
2023-04-20T22:56:15.385Z,93.8
2023-04-20T22:59:15.376Z,93.9
2023-04-20T23:02:15.451Z,93.9
2023-04-20T23:05:15.387Z,93.8
2023-04-20T23:08:15.390Z,93.8
2023-04-20T23:11:15.395Z,93.8
2023-04-20T23:14:15.394Z,93.8
2023-04-20T23:17:15.397Z,93.7
2023-04-20T23:20:15.415Z,93.7
2023-04-20T23:23:15.404Z,93.7
2023-04-20T23:26:15.420Z,93.8
2023-04-20T23:29:15.427Z,93.8
2023-04-20T23:32:15.415Z,93.7
2023-04-20T23:35:15.424Z,93.6
2023-04-20T23:38:15.441Z,93.6
2023-04-20T23:41:15.454Z,93.6
2023-04-20T23:44:15.448Z,93.6
2023-04-20T23:47:15.472Z,93.6
2023-04-20T23:50:15.446Z,93.5
2023-04-20T23:53:15.453Z,93.6
2023-04-20T23:56:15.467Z,93.6
2023-04-20T23:59:15.461Z,93.5
